Time;durP1;ratioP1;P1;durP2;ratioP2;P2;SDS_P1;SDS_P2;PMS_P1;PMS_P2;Temp;Humidity;BMP_temperature;BMP_pressure;BME280_temperature;BME280_humidity;BME280_pressure;Samples;Min_cycle;Max_cycle;Signal;HPM_P1;HPM_P2
2024/01/23 00:02:02;;;;;;;13.77;1.65;;;6.60;99.90;;;;;;4987485;28;20068;-35
2024/01/23 00:04:28;;;;;;;11.02;1.90;;;6.60;99.90;;;;;;4981468;28;20539;-35
2024/01/23 00:06:54;;;;;;;9.98;1.27;;;6.60;99.90;;;;;;4996655;28;20053;-35
2024/01/23 00:09:19;;;;;;;11.40;1.48;;;6.60;99.90;;;;;;5002084;28;20049;-35
2024/01/23 00:11:45;;;;;;;12.73;1.80;;;6.60;99.90;;;;;;5005944;28;20054;-35
2024/01/23 00:14:11;;;;;;;11.52;1.63;;;6.60;99.90;;;;;;5006500;28;20476;-35
2024/01/23 00:16:37;;;;;;;11.80;2.05;;;6.60;99.90;;;;;;5012454;28;20106;-35
2024/01/23 00:19:02;;;;;;;10.63;1.52;;;6.60;99.90;;;;;;5006228;28;20068;-35
2024/01/23 00:21:37;;;;;;;11.68;1.50;;;6.60;99.90;;;;;;5065210;27;20503;-34
2024/01/23 00:24:03;;;;;;;13.40;2.22;;;6.50;99.90;;;;;;5047095;28;20057;-34
2024/01/23 00:26:29;;;;;;;13.10;1.52;;;6.50;99.90;;;;;;5041032;28;20574;-34
2024/01/23 00:28:54;;;;;;;12.15;2.20;;;6.50;99.90;;;;;;5045504;28;20084;-34
2024/01/23 00:31:20;;;;;;;12.32;1.85;;;6.40;99.90;;;;;;5042656;28;20098;-34
2024/01/23 00:33:46;;;;;;;13.23;1.63;;;6.40;99.90;;;;;;5041107;28;20048;-34
2024/01/23 00:36:12;;;;;;;12.85;2.30;;;6.40;99.90;;;;;;5043278;28;20057;-34
2024/01/23 00:38:37;;;;;;;9.13;1.88;;;6.40;99.90;;;;;;5042700;28;20486;-35
2024/01/23 00:41:03;;;;;;;10.93;1.65;;;6.40;99.90;;;;;;5041490;28;20150;-34
2024/01/23 00:43:30;;;;;;;8.68;1.65;;;6.50;99.90;;;;;;5039828;28;20132;-34
2024/01/23 00:45:55;;;;;;;10.52;1.60;;;6.50;99.90;;;;;;5039930;28;20063;-34
2024/01/23 00:48:21;;;;;;;11.98;1.38;;;6.60;99.90;;;;;;5039739;28;20048;-34
2024/01/23 00:50:47;;;;;;;13.68;1.92;;;6.60;99.90;;;;;;5040471;28;20053;-34
2024/01/23 00:53:13;;;;;;;8.38;1.30;;;6.60;99.90;;;;;;5039359;28;20482;-34
2024/01/23 00:55:39;;;;;;;9.15;1.27;;;6.60;99.90;;;;;;5039631;28;20055;-34
2024/01/23 00:58:04;;;;;;;8.88;1.23;;;6.60;99.90;;;;;;5047047;28;20831;-34
2024/01/23 01:00:30;;;;;;;10.50;1.63;;;6.50;99.90;;;;;;5039914;28;20057;-34
2024/01/23 01:02:56;;;;;;;11.50;1.85;;;6.50;99.90;;;;;;5039335;28;20051;-34
2024/01/23 01:05:22;;;;;;;13.75;1.90;;;6.50;99.90;;;;;;5041224;28;20045;-35
2024/01/23 01:07:48;;;;;;;12.63;2.38;;;6.50;99.90;;;;;;5042796;28;20065;-34
2024/01/23 01:10:14;;;;;;;9.10;1.08;;;6.60;99.90;;;;;;5036819;28;20516;-35
2024/01/23 01:12:39;;;;;;;12.40;1.92;;;6.50;99.90;;;;;;5046834;28;20056;-35
2024/01/23 01:15:05;;;;;;;14.10;1.75;;;6.50;99.90;;;;;;5041615;28;20602;-34
2024/01/23 01:17:32;;;;;;;14.27;2.22;;;6.50;99.90;;;;;;5046784;28;20053;-35
2024/01/23 01:19:58;;;;;;;15.23;2.05;;;6.40;99.90;;;;;;5040760;28;20060;-35
2024/01/23 01:22:24;;;;;;;12.95;2.15;;;6.50;99.90;;;;;;5041280;28;20069;-35
2024/01/23 01:24:50;;;;;;;14.85;2.55;;;6.40;99.90;;;;;;5042666;28;20117;-35
2024/01/23 01:27:16;;;;;;;9.23;1.80;;;6.40;99.90;;;;;;5039621;28;20049;-35
2024/01/23 01:29:41;;;;;;;12.65;2.00;;;6.40;99.90;;;;;;5041793;28;20041;-35
2024/01/23 01:32:08;;;;;;;11.48;1.95;;;6.40;99.90;;;;;;5029759;28;20049;-34
2024/01/23 01:34:33;;;;;;;11.10;2.45;;;6.30;99.90;;;;;;5031705;28;20124;-35
2024/01/23 01:36:59;;;;;;;14.98;2.22;;;6.30;99.90;;;;;;5028938;28;20345;-36
2024/01/23 01:39:25;;;;;;;12.80;1.70;;;6.30;99.90;;;;;;5028728;28;20065;-35
2024/01/23 01:41:54;;;;;;;15.43;1.85;;;6.30;99.90;;;;;;5027916;28;20049;-35
2024/01/23 01:44:20;;;;;;;11.57;2.20;;;6.30;99.90;;;;;;5025475;28;20048;-35
2024/01/23 01:46:47;;;;;;;9.02;1.70;;;6.40;99.90;;;;;;5030215;28;20128;-35
2024/01/23 01:49:15;;;;;;;15.10;2.30;;;6.40;99.90;;;;;;5031034;28;20046;-35
2024/01/23 01:51:42;;;;;;;15.75;1.95;;;6.40;99.90;;;;;;5033040;28;20050;-35
2024/01/23 01:54:08;;;;;;;10.18;1.88;;;6.30;99.90;;;;;;5028478;28;20455;-35
2024/01/23 01:56:34;;;;;;;12.63;1.83;;;6.30;99.90;;;;;;5030396;28;20127;-35
2024/01/23 01:59:00;;;;;;;11.32;1.80;;;6.20;99.90;;;;;;5030625;28;20588;-35
2024/01/23 02:01:27;;;;;;;12.02;1.83;;;6.20;99.90;;;;;;5021641;28;20052;-35
2024/01/23 02:03:53;;;;;;;13.15;2.30;;;6.20;99.90;;;;;;5025676;28;23019;-35
2024/01/23 02:06:19;;;;;;;12.38;2.10;;;6.20;99.90;;;;;;5031262;28;20502;-35
2024/01/23 02:08:45;;;;;;;13.40;2.00;;;6.10;99.90;;;;;;5043240;28;20187;-34
2024/01/23 02:11:12;;;;;;;13.60;1.90;;;6.20;99.90;;;;;;5028535;28;20057;-35
2024/01/23 02:13:38;;;;;;;15.10;2.60;;;6.20;99.90;;;;;;5024835;28;20054;-34
2024/01/23 02:16:04;;;;;;;15.95;2.20;;;6.30;99.90;;;;;;5026411;28;20060;-35
2024/01/23 02:18:30;;;;;;;15.00;1.90;;;6.20;99.90;;;;;;5029274;28;20049;-35
2024/01/23 02:20:55;;;;;;;13.77;2.00;;;6.20;99.90;;;;;;5026732;28;20415;-34
2024/01/23 02:23:24;;;;;;;15.40;2.22;;;6.20;99.90;;;;;;5033009;28;20114;-35
2024/01/23 02:25:50;;;;;;;14.80;2.47;;;6.20;99.90;;;;;;5029018;28;20541;-35
2024/01/23 02:28:16;;;;;;;15.38;2.13;;;6.20;99.90;;;;;;5029298;28;20459;-35
2024/01/23 02:30:41;;;;;;;8.20;1.63;;;6.20;99.90;;;;;;5026917;28;20056;-34
2024/01/23 02:33:07;;;;;;;12.00;1.88;;;6.20;99.90;;;;;;5032777;28;20409;-34
2024/01/23 02:35:33;;;;;;;16.92;2.03;;;6.10;99.90;;;;;;5040381;28;20132;-35
2024/01/23 02:38:00;;;;;;;16.02;2.42;;;6.10;99.90;;;;;;5026535;28;20049;-35
2024/01/23 02:40:26;;;;;;;16.17;2.30;;;6.10;99.90;;;;;;5026660;28;20057;-35
2024/01/23 02:42:52;;;;;;;12.02;2.00;;;6.10;99.90;;;;;;5031627;28;20075;-38
2024/01/23 02:45:18;;;;;;;14.48;2.90;;;6.10;99.90;;;;;;5023455;28;20053;-35
2024/01/23 02:47:44;;;;;;;13.23;2.55;;;6.00;99.90;;;;;;5027743;28;20053;-34
2024/01/23 02:50:10;;;;;;;13.40;2.30;;;6.00;99.90;;;;;;5030322;28;20068;-34
2024/01/23 02:52:35;;;;;;;15.00;1.80;;;6.00;99.90;;;;;;5026797;28;20402;-34
2024/01/23 02:55:01;;;;;;;17.30;2.03;;;6.00;99.90;;;;;;5030522;28;20053;-34
2024/01/23 02:57:27;;;;;;;15.05;2.33;;;6.00;99.90;;;;;;5024829;28;20518;-33
2024/01/23 02:59:53;;;;;;;12.65;2.00;;;6.00;99.90;;;;;;5026360;28;20053;-34
2024/01/23 03:02:21;;;;;;;9.95;1.52;;;5.90;99.90;;;;;;5033028;28;20046;-34
2024/01/23 03:04:46;;;;;;;11.20;1.85;;;6.00;99.90;;;;;;5027213;28;20046;-34
2024/01/23 03:07:13;;;;;;;15.00;2.28;;;5.90;99.90;;;;;;5024141;28;20052;-34
2024/01/23 03:09:38;;;;;;;18.85;2.45;;;6.00;99.90;;;;;;5029136;28;20060;-34
2024/01/23 03:12:20;;;;;;;16.50;2.15;;;6.00;99.90;;;;;;5036585;28;20426;-34
2024/01/23 03:14:48;;;;;;;20.50;3.33;;;6.00;99.90;;;;;;5023061;28;20053;-34
2024/01/23 03:17:15;;;;;;;13.95;1.88;;;6.10;99.90;;;;;;5033957;28;20560;-34
2024/01/23 03:19:41;;;;;;;11.32;1.90;;;6.20;99.90;;;;;;5029483;28;20045;-34
2024/01/23 03:22:07;;;;;;;14.55;1.83;;;6.30;99.90;;;;;;5027946;28;20580;-34
2024/01/23 03:24:35;;;;;;;19.05;2.60;;;6.30;99.90;;;;;;5025062;28;20041;-34
2024/01/23 03:27:01;;;;;;;15.27;2.30;;;6.40;99.90;;;;;;5027382;28;20070;-34
2024/01/23 03:29:28;;;;;;;16.50;2.47;;;6.40;99.90;;;;;;5028152;28;20042;-34
2024/01/23 03:31:54;;;;;;;14.30;1.92;;;6.40;99.90;;;;;;5026703;28;20541;-34
2024/01/23 03:34:20;;;;;;;13.07;1.77;;;6.40;99.90;;;;;;5036183;28;20057;-34
2024/01/23 03:36:46;;;;;;;15.80;2.33;;;6.40;99.90;;;;;;5021493;28;20487;-34
2024/01/23 03:39:12;;;;;;;14.20;1.95;;;6.40;99.90;;;;;;5032832;28;20053;-34
2024/01/23 03:41:38;;;;;;;14.98;2.33;;;6.40;99.90;;;;;;5027922;28;20083;-34
2024/01/23 03:44:08;;;;;;;17.45;2.38;;;6.40;99.90;;;;;;5023477;28;20053;-34
2024/01/23 03:46:33;;;;;;;15.05;2.80;;;6.40;99.90;;;;;;5019861;28;20143;-34
2024/01/23 03:48:59;;;;;;;19.20;2.88;;;6.40;99.90;;;;;;5030132;28;20167;-34
2024/01/23 03:51:26;;;;;;;10.68;2.33;;;6.40;99.90;;;;;;5028673;28;20643;-34
2024/01/23 03:53:52;;;;;;;9.02;1.50;;;6.40;99.90;;;;;;5022558;28;20049;-34
2024/01/23 03:56:18;;;;;;;12.68;2.17;;;6.50;99.90;;;;;;5025903;28;20057;-34
2024/01/23 03:58:44;;;;;;;15.20;1.80;;;6.50;99.90;;;;;;5026201;28;20046;-34
2024/01/23 04:01:10;;;;;;;17.60;2.58;;;6.50;99.90;;;;;;5023646;28;20423;-34
2024/01/23 04:03:35;;;;;;;11.95;1.98;;;6.50;99.90;;;;;;5028274;28;20442;-34
2024/01/23 04:06:02;;;;;;;16.80;2.30;;;6.40;99.90;;;;;;5027892;28;20172;-35
2024/01/23 04:08:27;;;;;;;15.20;2.53;;;6.40;99.90;;;;;;5024522;28;20526;-34
2024/01/23 04:10:54;;;;;;;13.55;2.42;;;6.40;99.90;;;;;;5026023;28;20148;-34
2024/01/23 04:13:19;;;;;;;13.02;1.75;;;6.40;99.90;;;;;;5025511;28;20049;-34
2024/01/23 04:15:45;;;;;;;17.75;2.00;;;6.40;99.90;;;;;;5026305;28;20119;-33
2024/01/23 04:18:10;;;;;;;9.40;1.73;;;6.50;99.90;;;;;;5024691;28;20083;-34
2024/01/23 04:20:38;;;;;;;18.38;2.80;;;6.50;99.90;;;;;;5041359;28;20053;-33
2024/01/23 04:23:04;;;;;;;14.50;2.35;;;6.50;99.90;;;;;;5024772;28;20053;-34
2024/01/23 04:25:30;;;;;;;13.45;1.92;;;6.50;99.90;;;;;;5032626;28;20053;-34
2024/01/23 04:27:57;;;;;;;13.15;2.63;;;6.50;99.90;;;;;;5029192;28;20140;-34
2024/01/23 04:30:23;;;;;;;13.25;2.00;;;6.50;99.90;;;;;;5020171;28;21567;-33
2024/01/23 04:32:49;;;;;;;17.60;2.40;;;6.50;99.90;;;;;;5026763;28;20046;-35
2024/01/23 04:35:14;;;;;;;13.27;2.28;;;6.50;99.90;;;;;;5025580;28;20057;-33
2024/01/23 04:37:40;;;;;;;16.67;2.58;;;6.50;99.90;;;;;;5022763;28;20148;-33
2024/01/23 04:40:08;;;;;;;17.58;3.65;;;6.50;99.90;;;;;;5024738;28;20499;-34
2024/01/23 04:42:34;;;;;;;14.55;2.42;;;6.50;99.90;;;;;;5023697;28;20065;-34
2024/01/23 04:45:00;;;;;;;15.02;2.25;;;6.50;99.90;;;;;;5027284;28;20486;-34
2024/01/23 04:47:26;;;;;;;15.00;1.58;;;6.50;99.90;;;;;;5023216;28;20091;-34
2024/01/23 04:49:53;;;;;;;12.10;2.13;;;6.50;99.90;;;;;;5022933;28;20046;-33
2024/01/23 04:52:18;;;;;;;13.40;2.00;;;6.50;99.90;;;;;;5027271;28;21245;-34
2024/01/23 04:54:44;;;;;;;13.18;2.42;;;6.50;99.90;;;;;;5024401;28;20049;-34
2024/01/23 04:57:11;;;;;;;14.93;2.70;;;6.50;99.90;;;;;;5027244;28;20479;-33
2024/01/23 04:59:36;;;;;;;20.23;2.83;;;6.50;99.90;;;;;;5020969;28;20049;-34
2024/01/23 05:02:04;;;;;;;17.48;2.45;;;6.50;99.90;;;;;;5025716;28;20095;-34
2024/01/23 05:04:30;;;;;;;13.27;2.58;;;6.40;99.90;;;;;;5029452;28;20061;-34
2024/01/23 05:06:55;;;;;;;12.85;2.40;;;6.40;99.90;;;;;;5022799;28;20410;-34
2024/01/23 05:09:21;;;;;;;15.57;2.90;;;6.50;99.90;;;;;;5025535;28;20216;-34
2024/01/23 05:11:47;;;;;;;16.38;2.28;;;6.50;99.90;;;;;;5037218;28;20041;-34
2024/01/23 05:14:17;;;;;;;13.93;2.22;;;6.50;99.90;;;;;;5030011;28;20104;-34
2024/01/23 05:16:43;;;;;;;18.45;1.83;;;6.50;99.90;;;;;;5031538;28;20041;-34
2024/01/23 05:19:09;;;;;;;14.40;2.58;;;6.50;99.90;;;;;;5033692;28;20049;-33
2024/01/23 05:21:35;;;;;;;14.65;2.53;;;6.50;99.90;;;;;;5032151;28;20518;-33
2024/01/23 05:24:02;;;;;;;21.33;3.38;;;6.50;99.90;;;;;;5039241;28;20118;-33
2024/01/23 05:26:28;;;;;;;18.10;3.55;;;6.50;99.90;;;;;;5032445;28;20057;-34
2024/01/23 05:28:54;;;;;;;14.98;2.22;;;6.50;99.90;;;;;;5029916;28;20052;-34
2024/01/23 05:31:20;;;;;;;16.08;2.20;;;6.50;99.90;;;;;;5027853;28;20052;-34
2024/01/23 05:33:45;;;;;;;16.60;2.50;;;6.50;99.90;;;;;;5027665;28;20589;-34
2024/01/23 05:36:11;;;;;;;17.52;2.40;;;6.50;99.90;;;;;;5028824;28;20066;-34
2024/01/23 05:38:37;;;;;;;17.38;3.75;;;6.50;99.90;;;;;;5023577;28;20072;-34
2024/01/23 05:41:03;;;;;;;15.45;2.72;;;6.50;99.90;;;;;;5026381;28;20072;-34
2024/01/23 05:43:29;;;;;;;24.00;2.80;;;6.50;99.90;;;;;;5040150;28;20056;-34
2024/01/23 05:45:55;;;;;;;17.38;2.67;;;6.50;99.90;;;;;;5027985;28;20047;-34
2024/01/23 05:48:21;;;;;;;16.45;3.67;;;6.50;99.90;;;;;;5024945;28;20075;-34
2024/01/23 05:50:47;;;;;;;18.00;3.60;;;6.50;99.90;;;;;;5027391;28;20502;-34
2024/01/23 05:53:13;;;;;;;18.23;2.53;;;6.60;99.90;;;;;;5027651;28;20057;-34
2024/01/23 05:55:39;;;;;;;15.07;3.03;;;6.60;99.90;;;;;;5033064;28;20059;-34
2024/01/23 05:58:05;;;;;;;15.57;2.60;;;6.60;99.90;;;;;;5027191;28;20045;-33
2024/01/23 06:00:31;;;;;;;13.07;3.13;;;6.60;99.90;;;;;;5026449;28;20057;-34
2024/01/23 06:02:58;;;;;;;16.42;2.97;;;6.60;99.90;;;;;;5023367;28;20138;-34
2024/01/23 06:05:24;;;;;;;20.90;2.85;;;6.60;99.90;;;;;;5025648;28;20145;-34
2024/01/23 06:07:50;;;;;;;19.83;3.30;;;6.60;99.90;;;;;;5028462;28;20419;-34
2024/01/23 06:10:17;;;;;;;17.42;3.35;;;6.60;99.90;;;;;;5024867;28;20053;-34
2024/01/23 06:12:43;;;;;;;15.27;3.03;;;6.60;99.90;;;;;;5026674;28;20057;-34
2024/01/23 06:15:10;;;;;;;19.38;2.90;;;6.70;99.90;;;;;;5029504;28;20183;-34
2024/01/23 06:17:36;;;;;;;10.40;2.15;;;6.70;99.90;;;;;;5024755;28;20099;-34
2024/01/23 06:20:04;;;;;;;15.98;2.70;;;6.70;99.90;;;;;;5023178;28;20045;-33
2024/01/23 06:22:33;;;;;;;20.95;2.28;;;6.70;99.90;;;;;;5027500;28;20060;-35
2024/01/23 06:25:03;;;;;;;15.98;2.95;;;6.70;99.90;;;;;;5022550;28;20041;-34
2024/01/23 06:27:29;;;;;;;15.40;2.65;;;6.70;99.90;;;;;;5018368;28;20053;-34
2024/01/23 06:29:55;;;;;;;18.77;3.30;;;6.70;99.90;;;;;;5026282;28;20054;-34
2024/01/23 06:32:20;;;;;;;20.60;2.90;;;6.70;99.90;;;;;;5026843;28;20067;-34
2024/01/23 06:34:46;;;;;;;17.17;4.65;;;6.70;99.90;;;;;;5021671;28;20426;-34
2024/01/23 06:37:12;;;;;;;12.27;2.70;;;6.70;99.90;;;;;;5025452;28;20045;-34
2024/01/23 06:39:39;;;;;;;16.23;2.38;;;6.70;99.90;;;;;;5023095;28;20045;-34
2024/01/23 06:42:04;;;;;;;19.40;3.38;;;6.70;99.90;;;;;;5021219;28;20060;-34
2024/01/23 06:44:30;;;;;;;25.17;3.20;;;6.60;99.90;;;;;;5021177;28;20822;-34
2024/01/23 06:46:56;;;;;;;23.80;3.50;;;6.60;99.90;;;;;;5016547;28;20047;-34
2024/01/23 06:49:21;;;;;;;15.52;2.55;;;6.50;99.90;;;;;;5027180;28;20410;-34
2024/01/23 06:51:47;;;;;;;19.33;2.75;;;6.50;99.90;;;;;;5024518;28;20072;-34
2024/01/23 06:54:13;;;;;;;20.33;2.70;;;6.40;99.90;;;;;;5024895;28;20052;-34
2024/01/23 06:56:39;;;;;;;18.75;2.53;;;6.40;99.90;;;;;;5023508;28;20390;-34
2024/01/23 06:59:05;;;;;;;25.48;2.83;;;6.30;99.90;;;;;;5039812;28;20152;-34
2024/01/23 07:01:31;;;;;;;18.73;3.10;;;6.30;99.90;;;;;;5021549;28;20080;-34
2024/01/23 07:03:57;;;;;;;15.13;2.58;;;6.20;99.90;;;;;;5021716;28;21251;-34
2024/01/23 07:06:22;;;;;;;20.23;2.95;;;6.10;99.90;;;;;;5021543;28;20469;-34
2024/01/23 07:08:48;;;;;;;22.17;3.45;;;6.10;99.90;;;;;;5024824;28;20084;-34
2024/01/23 07:11:14;;;;;;;16.95;3.17;;;6.10;99.90;;;;;;5022674;28;20072;-34
2024/01/23 07:13:40;;;;;;;20.88;3.40;;;6.10;99.90;;;;;;5026726;28;20496;-34
2024/01/23 07:16:06;;;;;;;15.63;3.10;;;6.00;99.90;;;;;;5023648;28;20049;-34
2024/01/23 07:18:32;;;;;;;22.23;3.63;;;6.00;99.90;;;;;;5024292;28;20064;-34
2024/01/23 07:20:59;;;;;;;17.00;2.33;;;6.00;99.90;;;;;;5025397;28;20050;-34
2024/01/23 07:23:25;;;;;;;18.85;3.30;;;6.00;99.90;;;;;;5026332;28;20071;-34
2024/01/23 07:25:51;;;;;;;20.02;3.60;;;6.00;99.90;;;;;;5024349;28;20055;-34
2024/01/23 07:28:16;;;;;;;16.70;2.88;;;6.00;99.90;;;;;;5019252;28;20543;-35
2024/01/23 07:30:42;;;;;;;19.50;2.97;;;6.00;99.90;;;;;;5025132;28;20045;-33
2024/01/23 07:33:09;;;;;;;17.00;3.00;;;5.90;99.90;;;;;;5032611;28;20045;-34
2024/01/23 07:35:35;;;;;;;21.00;3.97;;;5.80;99.90;;;;;;5005081;28;20045;-34
2024/01/23 07:38:00;;;;;;;20.55;3.55;;;5.80;99.90;;;;;;5035049;28;20164;-34
2024/01/23 07:40:26;;;;;;;20.67;3.10;;;5.70;99.90;;;;;;5024741;28;20061;-34
2024/01/23 07:42:52;;;;;;;22.65;3.85;;;5.70;99.90;;;;;;5028996;28;20058;-33
2024/01/23 07:45:18;;;;;;;16.73;3.42;;;5.60;99.90;;;;;;5025155;28;20079;-34
2024/01/23 07:47:43;;;;;;;17.10;3.58;;;5.60;99.90;;;;;;5032306;28;20453;-34
2024/01/23 07:50:11;;;;;;;21.38;3.25;;;5.60;99.90;;;;;;5030618;28;20107;-34
2024/01/23 07:52:37;;;;;;;18.00;2.80;;;5.60;99.90;;;;;;5027631;28;20049;-34
2024/01/23 07:55:03;;;;;;;19.45;3.72;;;5.60;99.90;;;;;;5027520;28;20449;-34
2024/01/23 07:57:29;;;;;;;22.70;3.63;;;5.50;99.90;;;;;;5033900;28;20490;-34
2024/01/23 07:59:54;;;;;;;19.98;4.05;;;5.50;99.90;;;;;;5027794;28;20100;-34
2024/01/23 08:02:20;;;;;;;17.67;3.33;;;5.40;99.90;;;;;;5020308;28;20076;-35
2024/01/23 08:04:46;;;;;;;21.70;3.33;;;5.40;99.90;;;;;;5033419;28;20041;-35
2024/01/23 08:07:11;;;;;;;20.00;3.50;;;5.50;99.90;;;;;;5036030;28;20462;-34
2024/01/23 08:09:37;;;;;;;23.08;3.40;;;5.40;99.90;;;;;;5034157;28;20509;-34
2024/01/23 08:12:05;;;;;;;24.00;4.40;;;5.40;99.90;;;;;;5022240;28;20046;-34
2024/01/23 08:14:31;;;;;;;17.63;3.30;;;5.40;99.90;;;;;;5025679;28;20479;-34
2024/01/23 08:16:57;;;;;;;22.88;3.70;;;5.40;99.90;;;;;;5041892;28;20101;-34
2024/01/23 08:19:23;;;;;;;17.92;3.72;;;5.40;99.90;;;;;;5026789;28;21706;-34
2024/01/23 08:21:49;;;;;;;20.67;3.38;;;5.40;99.90;;;;;;5025317;28;20065;-34
2024/01/23 08:24:15;;;;;;;22.17;4.25;;;5.40;99.90;;;;;;5026660;28;20136;-35
2024/01/23 08:26:41;;;;;;;23.73;3.85;;;5.50;99.90;;;;;;5026756;28;20112;-35
2024/01/23 08:29:09;;;;;;;27.83;4.07;;;5.50;99.90;;;;;;5037115;28;20049;-34
2024/01/23 08:31:35;;;;;;;21.65;3.35;;;5.50;99.90;;;;;;5023203;28;20190;-34
2024/01/23 08:34:01;;;;;;;15.40;2.55;;;5.50;99.90;;;;;;5026940;28;20053;-34
2024/01/23 08:36:27;;;;;;;23.35;2.90;;;5.60;99.90;;;;;;5020881;28;20050;-34
2024/01/23 08:38:53;;;;;;;25.92;3.90;;;5.60;99.90;;;;;;5022944;28;20053;-35
2024/01/23 08:41:18;;;;;;;19.58;2.97;;;5.60;99.90;;;;;;5024599;28;20765;-34
2024/01/23 08:43:44;;;;;;;17.90;2.80;;;5.60;99.90;;;;;;5033699;28;20050;-34
2024/01/23 08:46:12;;;;;;;19.67;3.30;;;5.60;99.90;;;;;;5024241;28;20419;-34
2024/01/23 08:48:38;;;;;;;16.15;3.40;;;5.70;99.90;;;;;;5033734;28;20052;-34
2024/01/23 08:51:04;;;;;;;22.05;3.35;;;5.70;99.90;;;;;;5030081;28;20055;-34
2024/01/23 08:53:30;;;;;;;26.55;3.25;;;5.70;99.90;;;;;;5024553;28;20506;-34
2024/01/23 08:55:56;;;;;;;18.55;3.80;;;5.70;99.90;;;;;;5028796;28;20072;-34
2024/01/23 08:58:22;;;;;;;15.82;2.38;;;5.80;99.90;;;;;;5032544;28;20141;-34
2024/01/23 09:00:48;;;;;;;22.55;3.55;;;5.70;99.90;;;;;;5026914;28;20053;-34
2024/01/23 09:03:13;;;;;;;23.58;3.20;;;5.80;99.90;;;;;;5031653;28;20131;-34
2024/01/23 09:05:39;;;;;;;26.00;3.25;;;5.80;99.90;;;;;;5015590;28;20049;-34
2024/01/23 09:08:05;;;;;;;16.58;2.72;;;5.90;99.90;;;;;;5026267;28;20041;-34
2024/01/23 09:10:31;;;;;;;19.75;3.40;;;5.90;99.90;;;;;;5029443;28;20498;-35
2024/01/23 09:12:56;;;;;;;25.63;4.15;;;5.90;99.90;;;;;;5030653;28;20041;-35
2024/01/23 09:15:22;;;;;;;25.30;3.40;;;6.00;99.90;;;;;;5023609;28;20707;-34
2024/01/23 09:17:48;;;;;;;24.02;4.40;;;6.00;99.90;;;;;;5032814;28;20407;-35
2024/01/23 09:20:14;;;;;;;21.77;2.92;;;6.10;99.90;;;;;;5025692;28;21283;-34
2024/01/23 09:22:41;;;;;;;24.58;3.63;;;6.10;99.90;;;;;;5024934;28;20050;-34
2024/01/23 09:25:07;;;;;;;16.65;2.95;;;6.20;99.90;;;;;;5031128;28;20512;-34
2024/01/23 09:27:33;;;;;;;22.90;4.20;;;6.30;99.90;;;;;;5028246;28;20063;-34
2024/01/23 09:29:58;;;;;;;25.10;3.28;;;6.40;99.90;;;;;;5025641;28;20044;-35
2024/01/23 09:32:25;;;;;;;21.00;2.75;;;6.40;99.90;;;;;;5033099;28;20508;-35
2024/01/23 09:34:50;;;;;;;23.52;3.17;;;6.50;99.90;;;;;;5029583;28;20104;-35
2024/01/23 09:37:16;;;;;;;19.60;2.67;;;6.60;99.90;;;;;;5025062;28;20053;-35
2024/01/23 09:39:42;;;;;;;19.85;3.72;;;6.70;99.90;;;;;;5027893;28;20115;-35
2024/01/23 09:42:10;;;;;;;22.17;3.38;;;6.80;99.90;;;;;;5026899;28;20053;-34
2024/01/23 09:44:36;;;;;;;18.50;3.00;;;6.80;99.90;;;;;;5023348;28;20080;-34
2024/01/23 09:47:03;;;;;;;21.83;3.58;;;6.90;99.90;;;;;;5041997;28;20052;-34
2024/01/23 09:49:32;;;;;;;15.30;2.65;;;6.90;99.90;;;;;;5035961;28;20564;-34
2024/01/23 09:52:03;;;;;;;21.70;2.80;;;6.90;99.90;;;;;;5029173;28;20050;-34
2024/01/23 09:54:31;;;;;;;17.55;3.05;;;7.00;99.90;;;;;;5020451;28;20506;-34
2024/01/23 09:56:59;;;;;;;15.90;3.08;;;7.00;99.90;;;;;;5029811;28;20045;-34
2024/01/23 09:59:24;;;;;;;15.32;3.28;;;7.10;99.90;;;;;;5024456;28;20045;-33
2024/01/23 10:01:52;;;;;;;13.77;2.63;;;7.10;99.90;;;;;;5025749;28;20062;-38
2024/01/23 10:04:20;;;;;;;19.17;3.35;;;7.10;99.90;;;;;;5027222;28;20063;-34
2024/01/23 10:06:46;;;;;;;18.02;3.72;;;7.10;99.90;;;;;;5025898;28;20057;-34
2024/01/23 10:09:12;;;;;;;24.25;3.58;;;7.10;99.90;;;;;;5042578;28;20513;-34
2024/01/23 10:11:38;;;;;;;17.95;2.72;;;7.10;99.90;;;;;;5027069;28;20278;-34
2024/01/23 10:14:06;;;;;;;19.98;3.88;;;7.20;99.90;;;;;;5025630;28;20544;-34
2024/01/23 10:16:32;;;;;;;17.85;3.55;;;7.20;99.90;;;;;;5028680;28;20123;-34
2024/01/23 10:18:59;;;;;;;18.33;2.42;;;7.20;99.90;;;;;;5029660;28;20069;-34
2024/01/23 10:21:25;;;;;;;21.75;2.50;;;7.30;99.90;;;;;;5026890;28;20053;-34
2024/01/23 10:23:54;;;;;;;17.25;2.92;;;7.20;99.90;;;;;;5032554;28;20049;-34
2024/01/23 10:26:20;;;;;;;17.42;2.65;;;7.30;99.90;;;;;;5024318;28;20136;-34
2024/01/23 10:28:47;;;;;;;16.63;2.72;;;7.20;99.90;;;;;;5024498;28;20061;-34
2024/01/23 10:31:13;;;;;;;15.88;3.35;;;7.20;99.90;;;;;;5029681;28;20056;-34
2024/01/23 10:33:40;;;;;;;16.58;2.75;;;7.20;99.90;;;;;;5026009;28;20049;-34
2024/01/23 10:36:09;;;;;;;15.48;2.30;;;7.20;99.90;;;;;;5030837;28;20057;-35
2024/01/23 10:38:36;;;;;;;15.48;2.13;;;7.30;99.90;;;;;;5027905;28;20046;-35
2024/01/23 10:41:06;;;;;;;19.13;3.10;;;7.30;99.90;;;;;;5024216;28;20054;-34
2024/01/23 10:43:32;;;;;;;22.02;3.10;;;7.30;99.90;;;;;;5021994;28;20042;-34
2024/01/23 10:45:59;;;;;;;15.20;3.33;;;7.20;99.90;;;;;;5028402;28;20054;-34
2024/01/23 10:48:26;;;;;;;17.60;3.25;;;7.20;99.90;;;;;;5026720;28;20462;-34
2024/01/23 10:50:55;;;;;;;21.05;2.65;;;7.30;99.90;;;;;;5029828;28;20049;-35
2024/01/23 10:53:24;;;;;;;20.30;2.92;;;7.30;99.90;;;;;;5027387;28;20080;-35
2024/01/23 10:55:53;;;;;;;21.45;2.78;;;7.40;99.90;;;;;;5030210;28;20462;-35
2024/01/23 10:58:28;;;;;;;18.30;3.13;;;7.40;99.90;;;;;;5028850;28;20499;-35
2024/01/23 11:00:56;;;;;;;18.45;3.15;;;7.50;99.90;;;;;;5028569;28;20063;-35
2024/01/23 11:03:23;;;;;;;20.27;2.78;;;7.50;99.90;;;;;;5028234;28;20057;-35
2024/01/23 11:05:55;;;;;;;12.43;2.83;;;7.50;99.90;;;;;;5022202;28;20568;-34
2024/01/23 11:08:33;;;;;;;17.70;3.00;;;7.60;99.90;;;;;;5042300;28;20106;-34
2024/01/23 11:11:14;;;;;;;17.10;3.28;;;7.60;99.90;;;;;;5025600;28;20053;-34
2024/01/23 11:13:44;;;;;;;25.17;3.92;;;7.70;99.90;;;;;;5028503;28;20060;-34
2024/01/23 11:16:09;;;;;;;20.15;3.05;;;7.90;99.90;;;;;;5030392;28;20057;-34
2024/01/23 11:18:35;;;;;;;18.17;2.45;;;8.10;99.90;;;;;;5035759;28;20106;-34
2024/01/23 11:21:04;;;;;;;17.45;2.35;;;8.10;99.90;;;;;;5029033;28;20057;-33
2024/01/23 11:23:44;;;;;;;19.08;3.83;;;8.20;99.90;;;;;;5022260;28;20150;-34
2024/01/23 11:26:19;;;;;;;15.43;2.30;;;8.10;99.90;;;;;;5028370;28;20207;-34
2024/01/23 11:29:01;;;;;;;18.42;2.85;;;8.10;99.90;;;;;;5025147;28;20613;-34
2024/01/23 11:31:28;;;;;;;22.20;3.45;;;8.10;99.90;;;;;;5026773;28;20056;-34
2024/01/23 11:34:22;;;;;;;16.50;3.55;;;8.10;99.90;;;;;;5032954;28;20494;-34
2024/01/23 11:36:48;;;;;;;17.15;3.20;;;8.10;99.90;;;;;;5029037;28;20050;-34
2024/01/23 11:39:23;;;;;;;16.60;2.35;;;8.20;99.90;;;;;;5032692;28;20099;-34
2024/01/23 11:41:50;;;;;;;17.02;2.90;;;8.40;99.90;;;;;;5044724;28;20057;-34
2024/01/23 11:44:17;;;;;;;14.38;2.67;;;8.50;99.90;;;;;;5021974;28;20055;-34
2024/01/23 11:46:47;;;;;;;17.20;2.67;;;8.60;99.90;;;;;;5027605;28;20048;-34
2024/01/23 11:49:13;;;;;;;16.70;3.40;;;8.60;99.90;;;;;;5023489;28;20049;-34
2024/01/23 11:51:39;;;;;;;14.88;2.67;;;8.50;99.90;;;;;;5030772;28;20049;-34
2024/01/23 11:54:10;;;;;;;19.30;2.58;;;8.50;99.90;;;;;;5028460;28;20052;-37
2024/01/23 11:56:37;;;;;;;15.80;2.13;;;8.60;99.90;;;;;;5026589;28;20056;-34
2024/01/23 11:59:03;;;;;;;17.92;3.45;;;8.70;99.90;;;;;;5030248;28;20080;-34
2024/01/23 12:01:30;;;;;;;15.02;2.78;;;8.70;99.90;;;;;;5029984;28;20061;-35
2024/01/23 12:03:56;;;;;;;15.07;2.40;;;8.70;99.90;;;;;;5027785;28;20053;-34
2024/01/23 12:06:23;;;;;;;18.70;2.85;;;8.60;99.90;;;;;;5036818;28;20060;-34
2024/01/23 12:08:50;;;;;;;17.52;2.97;;;8.50;99.90;;;;;;5023516;28;20046;-34
2024/01/23 12:11:16;;;;;;;23.27;3.22;;;8.60;99.90;;;;;;5021970;28;20057;-34
2024/01/23 12:13:50;;;;;;;13.95;2.25;;;8.70;99.90;;;;;;5028633;28;20057;-35
2024/01/23 12:16:17;;;;;;;18.73;2.83;;;8.80;99.90;;;;;;5025149;28;20159;-34
2024/01/23 12:18:44;;;;;;;16.27;2.50;;;9.00;99.90;;;;;;5030457;28;20103;-35
2024/01/23 12:21:11;;;;;;;21.10;3.47;;;9.10;99.90;;;;;;5024678;28;20042;-34
2024/01/23 12:23:37;;;;;;;15.52;2.53;;;9.30;99.90;;;;;;5029412;28;20045;-34
2024/01/23 12:26:04;;;;;;;16.50;2.00;;;9.40;99.90;;;;;;5021316;28;20097;-34
2024/01/23 12:28:33;;;;;;;14.65;2.55;;;9.50;99.90;;;;;;5023213;28;20065;-35
2024/01/23 12:30:59;;;;;;;11.70;2.30;;;9.50;99.90;;;;;;5027479;28;20568;-34
2024/01/23 12:33:26;;;;;;;16.67;2.80;;;9.60;99.90;;;;;;5024718;28;20053;-34
2024/01/23 12:35:52;;;;;;;14.30;2.45;;;9.40;99.90;;;;;;5027424;28;20111;-35
2024/01/23 12:38:20;;;;;;;18.35;2.70;;;9.10;99.90;;;;;;5029298;28;20856;-34
2024/01/23 12:40:46;;;;;;;16.83;2.70;;;8.90;99.90;;;;;;5026945;28;20061;-34
2024/01/23 12:43:13;;;;;;;16.95;2.30;;;8.80;99.90;;;;;;5016635;28;20140;-35
2024/01/23 12:45:39;;;;;;;22.27;3.13;;;8.80;99.90;;;;;;5016940;28;20049;-35